createdAt,value
2019-04-22T00:01:04.831Z,15.07
2019-04-22T00:03:52.504Z,14.03
2019-04-22T00:06:51.742Z,16.67
2019-04-22T00:09:30.933Z,16.77
2019-04-22T00:12:19.853Z,15.27
2019-04-22T00:15:01.910Z,16.60
2019-04-22T00:17:46.657Z,16.70
2019-04-22T00:20:24.246Z,16.90
2019-04-22T00:23:09.759Z,14.57
2019-04-22T00:25:56.075Z,14.60
2019-04-22T00:28:37.908Z,16.00
2019-04-22T00:34:16.611Z,16.13
2019-04-22T00:37:02.853Z,16.13
2019-04-22T00:39:44.444Z,18.00
2019-04-22T00:42:28.863Z,19.37
2019-04-22T00:47:43.722Z,16.17
2019-04-22T00:50:30.122Z,17.57
2019-04-22T00:53:16.420Z,16.87
2019-04-22T00:56:00.631Z,15.77
2019-04-22T00:58:33.882Z,15.07
2019-04-22T01:01:19.150Z,13.20
2019-04-22T01:07:09.174Z,12.53
2019-04-22T01:09:58.866Z,14.07
2019-04-22T01:12:45.638Z,14.40
2019-04-22T01:15:36.283Z,13.57
2019-04-22T01:18:21.032Z,12.00
2019-04-22T01:21:36.896Z,12.17
2019-04-22T01:24:19.380Z,12.07
2019-04-22T01:27:06.532Z,13.00
2019-04-22T01:29:48.977Z,13.50
2019-04-22T01:32:32.834Z,11.67
2019-04-22T01:35:26.359Z,12.70
2019-04-22T01:38:07.960Z,11.67
2019-04-22T01:41:07.219Z,12.60
2019-04-22T01:43:55.106Z,11.50
2019-04-22T01:46:32.014Z,10.50
2019-04-22T01:49:08.450Z,10.30
2019-04-22T01:54:40.037Z,10.93
2019-04-22T01:57:19.104Z,11.27
2019-04-22T01:59:55.139Z,11.17
2019-04-22T02:02:42.267Z,15.07
2019-04-22T02:05:24.831Z,17.33
2019-04-22T02:08:19.827Z,18.97
2019-04-22T02:10:58.640Z,10.60
2019-04-22T02:13:36.644Z,12.30
2019-04-22T02:16:21.383Z,13.90
2019-04-22T02:19:04.029Z,11.90
2019-04-22T02:21:46.556Z,11.83
2019-04-22T02:24:30.029Z,12.77
2019-04-22T02:27:10.741Z,15.73
2019-04-22T02:29:47.682Z,16.27
2019-04-22T02:35:31.225Z,13.90
2019-04-22T02:38:19.443Z,16.40
2019-04-22T02:46:54.825Z,24.07
2019-04-22T02:52:22.011Z,47.63
2019-04-22T02:55:10.199Z,82.93
2019-04-22T02:58:12.584Z,98.40
2019-04-22T03:00:56.789Z,88.27
2019-04-22T03:04:00.686Z,94.83
2019-04-22T03:09:18.035Z,85.90
2019-04-22T03:17:51.585Z,99.17
2019-04-22T03:20:37.699Z,83.93
2019-04-22T03:23:34.092Z,56.90
2019-04-22T03:35:20.208Z,37.33
2019-04-22T03:37:36.304Z,32.27
2019-04-22T03:45:37.853Z,31.23
2019-04-22T03:48:17.683Z,28.47
2019-04-22T03:51:11.852Z,38.17
2019-04-22T03:53:55.947Z,44.50
2019-04-22T04:02:02.569Z,47.57
2019-04-22T04:10:10.465Z,27.10
2019-04-22T04:12:49.413Z,20.10
2019-04-22T04:21:10.240Z,16.20
2019-04-22T04:26:27.007Z,15.43
2019-04-22T04:29:21.575Z,20.40
2019-04-22T04:34:43.299Z,17.90
2019-04-22T04:45:34.264Z,14.10
2019-04-22T04:48:01.917Z,15.70
2019-04-22T04:50:47.388Z,13.50
2019-04-22T04:53:24.990Z,12.80
2019-04-22T04:56:10.941Z,14.10
2019-04-22T04:59:05.405Z,12.47
2019-04-22T05:01:39.762Z,13.07
2019-04-22T05:07:18.800Z,13.03
2019-04-22T05:09:40.795Z,13.63
2019-04-22T05:12:33.874Z,13.97
2019-04-22T05:17:53.612Z,13.30
2019-04-22T05:23:16.267Z,11.90
2019-04-22T05:25:53.705Z,13.30
2019-04-22T05:28:35.045Z,14.13
2019-04-22T05:34:05.520Z,13.53
2019-04-22T05:39:21.296Z,13.50
2019-04-22T05:42:08.935Z,11.73
2019-04-22T05:44:55.212Z,11.40
2019-04-22T05:47:31.978Z,11.73
2019-04-22T05:50:13.101Z,11.53
2019-04-22T05:52:57.088Z,12.30
2019-04-22T05:55:43.853Z,11.70
2019-04-22T05:58:22.589Z,11.60
2019-04-22T06:01:29.035Z,11.90
2019-04-22T06:03:51.003Z,11.93
2019-04-22T06:06:33.974Z,10.93
2019-04-22T06:09:22.541Z,10.93
2019-04-22T06:11:55.582Z,11.10
2019-04-22T06:14:40.759Z,10.23
2019-04-22T06:17:24.665Z,10.80
2019-04-22T06:20:02.177Z,11.23
2019-04-22T06:22:50.374Z,10.23
2019-04-22T06:25:57.383Z,9.87
2019-04-22T06:28:23.563Z,10.23
2019-04-22T06:33:40.572Z,10.47
2019-04-22T06:36:23.346Z,11.70
2019-04-22T06:39:10.472Z,10.90
2019-04-22T06:41:47.775Z,11.13
2019-04-22T06:44:29.795Z,8.90
2019-04-22T06:47:14.799Z,8.80
2019-04-22T06:49:55.469Z,9.47
2019-04-22T06:52:38.178Z,11.03
2019-04-22T06:55:21.143Z,9.53
2019-04-22T06:58:07.641Z,9.57
2019-04-22T07:00:44.559Z,9.90
2019-04-22T07:03:44.442Z,10.03
2019-04-22T07:06:17.514Z,8.63
2019-04-22T07:09:15.999Z,9.30
2019-04-22T07:11:41.696Z,9.70
2019-04-22T07:14:20.388Z,8.37
2019-04-22T07:17:01.931Z,8.40
2019-04-22T07:19:45.127Z,8.00
2019-04-22T07:22:28.144Z,8.63
2019-04-22T07:25:10.531Z,8.33
2019-04-22T07:27:52.593Z,8.23
2019-04-22T07:30:34.978Z,9.50
2019-04-22T07:33:19.833Z,9.43
2019-04-22T07:36:22.607Z,9.90
2019-04-22T07:38:36.241Z,9.33
2019-04-22T07:41:29.052Z,9.17
2019-04-22T07:44:26.504Z,8.97
2019-04-22T07:47:00.834Z,9.50
2019-04-22T07:49:39.533Z,8.80
2019-04-22T07:52:15.962Z,9.47
2019-04-22T07:54:56.979Z,9.40
2019-04-22T07:57:39.570Z,8.83
2019-04-22T08:03:14.569Z,8.23
2019-04-22T08:05:58.578Z,8.73
2019-04-22T08:08:28.749Z,8.67
2019-04-22T08:11:30.625Z,8.60
2019-04-22T08:13:58.737Z,8.07
2019-04-22T08:16:43.363Z,8.40
2019-04-22T08:22:21.153Z,8.57
2019-04-22T08:24:51.421Z,8.47
2019-04-22T08:27:31.798Z,9.20
2019-04-22T08:33:04.423Z,10.37
2019-04-22T08:35:52.142Z,9.13
2019-04-22T08:38:24.131Z,7.63
2019-04-22T08:41:06.539Z,8.90
2019-04-22T08:46:33.150Z,7.00
2019-04-22T08:49:14.132Z,7.23
2019-04-22T08:51:57.854Z,6.80
2019-04-22T08:54:39.099Z,8.60
2019-04-22T08:57:26.053Z,7.20
2019-04-22T09:00:04.853Z,7.33
2019-04-22T09:02:46.753Z,7.63
2019-04-22T09:05:43.531Z,9.17
2019-04-22T09:08:15.583Z,8.33
2019-04-22T09:10:58.432Z,7.23
2019-04-22T09:13:50.623Z,6.43
2019-04-22T09:16:28.261Z,6.97
2019-04-22T09:21:54.503Z,7.23
2019-04-22T09:24:32.569Z,6.47
2019-04-22T09:27:22.679Z,7.23
2019-04-22T09:29:50.344Z,6.97
2019-04-22T09:32:38.504Z,6.70
2019-04-22T09:35:24.833Z,6.53
2019-04-22T09:38:21.709Z,7.50
2019-04-22T09:40:46.864Z,6.80
2019-04-22T09:43:32.175Z,7.33
2019-04-22T09:46:11.624Z,6.90
2019-04-22T09:49:00.387Z,7.43
2019-04-22T09:51:36.956Z,5.90
2019-04-22T09:54:22.002Z,6.40
2019-04-22T09:57:03.958Z,6.67
2019-04-22T09:59:56.315Z,5.90
2019-04-22T10:05:15.092Z,5.60
2019-04-22T10:07:54.401Z,5.90
2019-04-22T10:10:37.427Z,5.30
2019-04-22T10:13:18.759Z,6.33
2019-04-22T10:16:02.646Z,5.90
2019-04-22T10:18:45.654Z,5.07
2019-04-22T10:21:35.638Z,4.70
2019-04-22T10:24:09.284Z,5.30
2019-04-22T10:26:54.691Z,5.27
2019-04-22T10:29:44.803Z,4.90
2019-04-22T10:32:14.730Z,5.10
2019-04-22T10:37:38.667Z,4.63
2019-04-22T10:43:29.484Z,5.53
2019-04-22T10:46:10.536Z,5.07
2019-04-22T10:48:52.773Z,5.60
2019-04-22T10:51:34.837Z,5.70
2019-04-22T10:54:15.812Z,6.60
2019-04-22T10:56:56.979Z,5.67
2019-04-22T10:59:38.533Z,5.20
2019-04-22T11:02:19.498Z,5.50
2019-04-22T11:05:01.686Z,5.23
2019-04-22T11:07:51.692Z,5.90
2019-04-22T11:10:41.316Z,5.77
2019-04-22T11:13:09.410Z,5.70
2019-04-22T11:15:51.301Z,5.93
2019-04-22T11:18:31.884Z,6.53
2019-04-22T11:21:13.755Z,4.80
2019-04-22T11:23:54.796Z,5.63
2019-04-22T11:26:36.860Z,5.50
2019-04-22T11:29:19.548Z,5.50
2019-04-22T11:32:02.226Z,5.70
2019-04-22T11:34:42.905Z,5.30
2019-04-22T11:37:24.758Z,4.87
2019-04-22T11:40:16.578Z,5.00
2019-04-22T11:42:48.460Z,5.40
2019-04-22T11:45:29.272Z,4.77
2019-04-22T11:48:11.209Z,5.50
2019-04-22T11:50:51.828Z,5.27
2019-04-22T11:53:32.418Z,4.53
2019-04-22T11:56:13.265Z,4.50
2019-04-22T11:58:55.160Z,5.40
2019-04-22T12:01:37.016Z,4.33
2019-04-22T12:04:18.070Z,4.37
2019-04-22T12:07:00.022Z,4.70
2019-04-22T12:09:41.890Z,4.90
2019-04-22T12:12:23.636Z,4.77
2019-04-22T12:15:04.340Z,4.60
2019-04-22T12:17:46.196Z,4.33
2019-04-22T12:20:27.589Z,4.40
2019-04-22T12:23:09.378Z,4.57
2019-04-22T12:25:57.069Z,6.40
2019-04-22T12:28:33.152Z,4.70
2019-04-22T12:31:15.367Z,5.53
2019-04-22T12:33:57.369Z,5.10
2019-04-22T12:36:38.625Z,5.40
2019-04-22T12:39:19.517Z,5.63
2019-04-22T12:42:00.427Z,4.87
2019-04-22T12:44:43.376Z,7.87
2019-04-22T12:47:24.353Z,4.93
2019-04-22T12:50:12.669Z,4.30
2019-04-22T12:52:55.594Z,4.93
2019-04-22T12:55:32.389Z,5.10
2019-04-22T12:58:13.871Z,4.50
2019-04-22T13:00:54.785Z,4.40
2019-04-22T13:03:36.109Z,4.30
2019-04-22T13:06:17.633Z,4.10
2019-04-22T13:08:58.105Z,4.20
2019-04-22T13:11:40.271Z,4.03
2019-04-22T13:14:22.993Z,3.33
2019-04-22T13:17:06.020Z,5.53
2019-04-22T13:19:47.898Z,4.07
2019-04-22T13:22:30.506Z,3.67
2019-04-22T13:25:12.409Z,3.53
2019-04-22T13:27:55.195Z,3.27
2019-04-22T13:30:36.877Z,3.47
2019-04-22T13:33:19.034Z,3.37
2019-04-22T13:35:59.825Z,3.40
2019-04-22T13:38:40.670Z,3.03
2019-04-22T13:41:31.692Z,2.70
2019-04-22T13:44:04.974Z,3.00
2019-04-22T13:47:02.087Z,2.90
2019-04-22T13:50:18.213Z,2.83
2019-04-22T13:53:18.179Z,3.03
2019-04-22T13:55:43.711Z,3.50
2019-04-22T13:57:54.002Z,3.00
2019-04-22T14:00:22.506Z,3.30
2019-04-22T14:03:22.632Z,2.83
2019-04-22T14:06:04.750Z,3.33
2019-04-22T14:08:47.180Z,3.60
2019-04-22T14:11:37.622Z,2.90
2019-04-22T14:14:10.959Z,2.67
2019-04-22T14:16:54.877Z,2.60
2019-04-22T14:19:36.326Z,3.40
2019-04-22T14:22:17.834Z,2.83
2019-04-22T14:24:58.886Z,2.60
2019-04-22T14:27:48.611Z,2.73
2019-04-22T14:30:24.454Z,2.43
2019-04-22T14:33:06.816Z,2.77
2019-04-22T14:35:47.997Z,2.30
2019-04-22T14:38:30.148Z,2.40
2019-04-22T14:41:30.552Z,2.80
2019-04-22T14:45:04.922Z,2.33
2019-04-22T14:47:03.210Z,3.20
2019-04-22T14:49:42.112Z,2.73
2019-04-22T14:52:27.638Z,2.90
2019-04-22T14:54:54.296Z,2.67
2019-04-22T14:57:29.585Z,2.70
2019-04-22T15:00:11.505Z,2.67
2019-04-22T15:02:52.408Z,2.40
2019-04-22T15:05:34.281Z,2.53
2019-04-22T15:08:17.129Z,2.60
2019-04-22T15:10:58.363Z,2.40
2019-04-22T15:13:39.428Z,2.90
2019-04-22T15:19:38.042Z,2.60
2019-04-22T15:22:19.033Z,2.60
2019-04-22T15:25:00.764Z,2.83
2019-04-22T15:27:41.891Z,2.40
2019-04-22T15:30:23.541Z,2.70
2019-04-22T15:33:05.516Z,2.50
2019-04-22T15:35:47.225Z,2.40
2019-04-22T15:38:28.262Z,2.30
2019-04-22T15:41:10.439Z,2.10
2019-04-22T15:43:52.081Z,2.50
2019-04-22T15:46:33.044Z,2.70
2019-04-22T15:49:13.981Z,2.17
2019-04-22T15:51:57.578Z,1.87
2019-04-22T15:54:37.715Z,2.30
2019-04-22T15:57:18.360Z,2.10
2019-04-22T16:00:14.308Z,2.00
2019-04-22T16:02:43.630Z,1.87
2019-04-22T16:05:24.868Z,2.00
2019-04-22T16:08:06.723Z,1.60
2019-04-22T16:10:48.180Z,2.27
2019-04-22T16:13:34.028Z,2.40
2019-04-22T16:16:12.474Z,2.30
2019-04-22T16:18:54.196Z,2.00
2019-04-22T16:21:45.103Z,2.17
2019-04-22T16:24:38.190Z,2.60
2019-04-22T16:27:22.890Z,2.47
2019-04-22T16:30:05.352Z,2.60
2019-04-22T16:32:45.904Z,2.20
2019-04-22T16:35:26.894Z,2.10
2019-04-22T16:38:08.722Z,2.23
2019-04-22T16:40:50.522Z,2.20
2019-04-22T16:43:32.785Z,2.10
2019-04-22T16:46:14.210Z,2.27
2019-04-22T16:48:55.999Z,2.83
2019-04-22T16:51:38.166Z,7.20
2019-04-22T16:54:20.264Z,2.37
2019-04-22T16:57:01.881Z,2.70
2019-04-22T16:59:44.531Z,2.20
2019-04-22T17:02:47.053Z,2.60
2019-04-22T17:08:52.877Z,2.90
2019-04-22T17:11:33.993Z,2.63
2019-04-22T17:14:17.975Z,2.90
2019-04-22T17:16:57.586Z,2.20
2019-04-22T17:19:39.496Z,2.63
2019-04-22T17:22:21.745Z,2.60
2019-04-22T17:25:02.750Z,2.93
2019-04-22T17:27:43.580Z,2.63
2019-04-22T17:30:24.396Z,4.93
2019-04-22T17:33:05.279Z,7.43
2019-04-22T17:35:48.512Z,2.93
2019-04-22T17:38:40.080Z,3.07
2019-04-22T17:41:23.187Z,4.00
2019-04-22T17:44:18.884Z,3.20
2019-04-22T17:50:17.118Z,3.57
2019-04-22T17:53:08.271Z,4.33
2019-04-22T17:55:51.551Z,5.03
2019-04-22T17:58:27.312Z,6.23
2019-04-22T18:01:09.346Z,4.20
2019-04-22T18:03:37.471Z,3.10
2019-04-22T18:06:44.078Z,3.17
2019-04-22T18:12:33.514Z,5.83
2019-04-22T18:15:16.250Z,3.80
2019-04-22T18:18:06.506Z,3.80
2019-04-22T18:20:50.950Z,3.40
2019-04-22T18:23:29.401Z,3.03
2019-04-22T18:26:32.089Z,3.60
2019-04-22T18:29:43.060Z,2.43
2019-04-22T18:32:25.513Z,2.70
2019-04-22T18:35:16.681Z,2.70
2019-04-22T18:38:00.251Z,2.40
2019-04-22T18:40:43.322Z,2.50
2019-04-22T18:43:28.820Z,2.87
2019-04-22T18:46:12.460Z,2.30
2019-04-22T18:48:53.960Z,2.67
2019-04-22T18:57:42.708Z,2.70
2019-04-22T19:00:16.097Z,2.60
2019-04-22T19:03:03.846Z,2.70
2019-04-22T19:06:09.452Z,2.83
2019-04-22T19:08:43.014Z,2.47
2019-04-22T19:11:35.531Z,2.43
2019-04-22T19:14:10.436Z,3.30
2019-04-22T19:17:02.299Z,2.93
2019-04-22T19:20:00.103Z,2.67
2019-04-22T19:22:25.180Z,2.70
2019-04-22T19:24:57.966Z,3.70
2019-04-22T19:27:40.411Z,3.20
2019-04-22T19:30:33.131Z,2.60
2019-04-22T19:33:11.218Z,3.43
2019-04-22T19:35:51.984Z,2.93
2019-04-22T19:38:25.397Z,2.77
2019-04-22T19:41:19.665Z,3.37
2019-04-22T19:44:05.841Z,2.90
2019-04-22T19:46:42.459Z,3.37
2019-04-22T19:49:31.486Z,2.70
2019-04-22T19:52:11.461Z,2.80
2019-04-22T19:54:57.252Z,3.33
2019-04-22T19:57:34.229Z,3.73
2019-04-22T20:00:14.668Z,3.50
2019-04-22T20:03:16.899Z,3.27
2019-04-22T20:06:01.327Z,3.00
2019-04-22T20:08:39.662Z,3.27
2019-04-22T20:11:26.529Z,3.60
2019-04-22T20:14:06.238Z,4.10
2019-04-22T20:16:41.365Z,3.50
2019-04-22T20:19:30.213Z,3.37
2019-04-22T20:22:12.789Z,3.80
2019-04-22T20:24:47.132Z,3.60
2019-04-22T20:27:36.341Z,3.90
2019-04-22T20:30:23.517Z,3.17
2019-04-22T20:32:59.166Z,3.60
2019-04-22T20:35:43.673Z,3.97
2019-04-22T20:38:28.132Z,4.03
2019-04-22T20:41:08.846Z,3.93
2019-04-22T20:43:57.759Z,4.07
2019-04-22T20:46:36.150Z,4.00
2019-04-22T20:49:22.057Z,4.43
2019-04-22T20:52:08.026Z,4.50
2019-04-22T20:54:45.342Z,4.00
2019-04-22T20:57:31.949Z,4.47
2019-04-22T21:00:06.450Z,4.23
2019-04-22T21:02:45.475Z,4.50
2019-04-22T21:05:27.371Z,4.90
2019-04-22T21:08:18.972Z,5.40
2019-04-22T21:10:52.155Z,5.57
2019-04-22T21:13:34.936Z,4.73
2019-04-22T21:16:26.823Z,4.53
2019-04-22T21:19:11.738Z,6.03
2019-04-22T21:21:59.611Z,5.00
2019-04-22T21:24:29.110Z,4.67
2019-04-22T21:27:22.155Z,4.80
2019-04-22T21:29:56.939Z,5.07
2019-04-22T21:32:43.142Z,5.80
2019-04-22T21:35:40.435Z,5.03
2019-04-22T21:38:09.818Z,4.70
2019-04-22T21:40:47.397Z,5.43
2019-04-22T21:43:38.587Z,5.50
2019-04-22T21:46:16.533Z,5.43
2019-04-22T21:49:00.182Z,6.47
2019-04-22T21:51:48.067Z,6.10
2019-04-22T21:54:26.981Z,5.93
2019-04-22T22:00:15.150Z,6.83
2019-04-22T22:02:51.832Z,6.50
2019-04-22T22:05:28.464Z,7.23
2019-04-22T22:08:23.467Z,7.50
2019-04-22T22:10:57.924Z,6.80
2019-04-22T22:13:38.685Z,7.40
2019-04-22T22:16:22.163Z,7.60
2019-04-22T22:19:06.655Z,7.30
2019-04-22T22:24:35.936Z,8.33
2019-04-22T22:27:14.444Z,7.50
2019-04-22T22:30:06.839Z,8.00
2019-04-22T22:32:40.714Z,7.03
2019-04-22T22:35:25.564Z,7.80
2019-04-22T22:38:02.745Z,7.63
2019-04-22T22:40:34.138Z,8.63
2019-04-22T22:43:20.362Z,7.57
2019-04-22T22:46:09.462Z,7.93
2019-04-22T22:49:03.187Z,8.17
2019-04-22T22:51:47.301Z,7.53
2019-04-22T22:54:23.675Z,9.10
2019-04-22T22:57:10.394Z,8.50
2019-04-22T22:59:50.125Z,8.20
2019-04-22T23:02:34.071Z,8.90
2019-04-22T23:05:18.486Z,9.10
2019-04-22T23:08:02.118Z,8.80
2019-04-22T23:10:53.761Z,9.87
2019-04-22T23:13:26.217Z,8.50
2019-04-22T23:15:58.390Z,8.80
2019-04-22T23:18:28.030Z,9.33
2019-04-22T23:21:20.721Z,9.00
2019-04-22T23:24:14.661Z,9.37
2019-04-22T23:27:10.178Z,9.33
2019-04-22T23:30:02.485Z,9.23
2019-04-22T23:32:56.460Z,8.50
2019-04-22T23:38:50.522Z,9.97
2019-04-22T23:44:17.750Z,8.10
2019-04-22T23:50:09.433Z,9.13
2019-04-22T23:52:54.419Z,8.97
2019-04-22T23:55:41.352Z,9.50
2019-04-22T23:58:37.779Z,9.53
